Vancouver — WDG2203 — position and weather

sailwx.info

Track history (hours):
 
Tides and Currents Weather Stations Pressure Air Temp Water Temp Dewpoint Dewpoint Depression Visibility Wind Speed Wind Dir Waves Ship Positions

Vancouver

Owner: Shaver Transportation Company, Portland, OR. More information available from US FCC via Universal Licensing System and Coast Guard Vessel Documentation Center.

Last reported at 2017-Oct-18 00:00 UTC. Time now 2017-Oct-18 00:16 UTC.
Position N 46°05' W 122°56'.

Length 23 m.

Type: Tug. MMSI: 367513220.

Date/timePositionNaut miles runAvg speedWind from/ knotsBaromVisibWave heightAir tempDewpointWater temp
2017-Oct-18 00:00N 46°05' W 122°56'0 0.0
2017-Oct-17 23:31N 46°05' W 122°56'0 0.0
2017-Oct-17 23:00N 46°05' W 122°56'0 0.0
2017-Oct-17 22:30N 46°05' W 122°56'0 0.0
2017-Oct-17 22:01N 46°05' W 122°56'0 0.0
2017-Oct-17 21:31N 46°05' W 122°56'0 0.0
2017-Oct-17 21:01N 46°05' W 122°56'0 0.0
2017-Oct-17 20:31N 46°05' W 122°56'0 0.0
2017-Oct-17 20:00N 46°05' W 122°56'1 1.1
2017-Oct-17 19:30N 46°06' W 122°56'0 0.4
2017-Oct-17 19:01N 46°06' W 122°56'2 3.0
2017-Oct-17 18:30N 46°07' W 122°58'0 0.3
2017-Oct-17 17:55N 46°06' W 122°58'2 3.5
2017-Oct-17 17:25N 46°05' W 122°56'0 0.0
2017-Oct-17 16:52N 46°05' W 122°56'0 0.9
2017-Oct-17 16:30N 46°06' W 122°55'2 4.3
2017-Oct-17 16:00N 46°04' W 122°53'5 9.4
2017-Oct-17 15:30N 45°60' W 122°51'4 9.0
2017-Oct-17 15:00N 45°55' W 122°48'4 8.5
2017-Oct-17 14:30N 45°51' W 122°47'7 7.2
2017-Oct-17 13:30N 45°44' W 122°46'3 6.8
2017-Oct-17 13:00N 45°41' W 122°46'2 4.5
2017-Oct-17 12:30N 45°39' W 122°45'0 0.6
2017-Oct-17 12:00N 45°39' W 122°45'2 3.1
2017-Oct-17 11:30N 45°38' W 122°43'1 1.4
2017-Oct-17 11:00N 45°38' W 122°42'2 4.3
2017-Oct-17 10:29N 45°39' W 122°45'0 0.1
2017-Oct-17 10:00N 45°39' W 122°45'0 0.4
2017-Oct-17 09:31N 45°39' W 122°44'2 4.1
2017-Oct-17 09:00N 45°38' W 122°42'0 0.2
2017-Oct-17 08:30N 45°38' W 122°42'1 2.2
2017-Oct-17 08:01N 45°38' W 122°43'0 0.9
2017-Oct-17 07:30N 45°39' W 122°44'1 1.8
2017-Oct-17 07:00N 45°39' W 122°45'0 0.0
2017-Oct-17 06:27N 45°39' W 122°45'0 0.0
2017-Oct-17 06:00N 45°39' W 122°45'0 0.0
2017-Oct-17 05:30N 45°39' W 122°45'0 0.0
2017-Oct-17 05:00N 45°39' W 122°45'0 0.0
2017-Oct-17 04:30N 45°39' W 122°45'0 0.0
2017-Oct-17 04:00N 45°39' W 122°45'0 0.1
2017-Oct-17 03:12N 45°39' W 122°45'0 0.0
2017-Oct-17 03:00N 45°39' W 122°45'0 0.0
2017-Oct-17 02:30N 45°39' W 122°45'0 0.0
2017-Oct-17 02:00N 45°39' W 122°45'0 0.0
2017-Oct-17 01:27N 45°39' W 122°45'0 0.0
2017-Oct-17 01:00N 45°39' W 122°45'0 0.0
2017-Oct-17 00:27N 45°39' W 122°45'0 0.0
2017-Oct-17 00:00N 45°39' W 122°45'0 0.0
2017-Oct-16 23:18N 45°39' W 122°45'0 0.0
2017-Oct-16 23:00N 45°39' W 122°45'0 0.0
2017-Oct-16 22:30N 45°39' W 122°45'0 0.0
2017-Oct-16 21:51N 45°39' W 122°45'0 0.0
2017-Oct-16 21:30N 45°39' W 122°45'0 0.0
2017-Oct-16 21:00N 45°39' W 122°45'0 0.0
2017-Oct-16 20:27N 45°39' W 122°45'0 0.0
2017-Oct-16 19:57N 45°39' W 122°45'0 0.0
2017-Oct-16 19:21N 45°39' W 122°45'0 0.0
2017-Oct-16 18:54N 45°39' W 122°45'0 0.0
2017-Oct-16 18:27N 45°39' W 122°45'0 0.0
2017-Oct-16 17:57N 45°39' W 122°45'0 0.1
2017-Oct-16 17:30N 45°39' W 122°45'0 0.1
2017-Oct-16 17:00N 45°39' W 122°45'0 0.0
2017-Oct-16 16:30N 45°39' W 122°45'0 0.0
2017-Oct-16 16:00N 45°39' W 122°45'0 0.0
2017-Oct-16 15:30N 45°39' W 122°45'0 0.0
2017-Oct-16 15:00N 45°39' W 122°45'0 0.0
2017-Oct-16 14:00N 45°39' W 122°45'0 0.0
2017-Oct-16 13:27N 45°39' W 122°45'0 0.0
2017-Oct-16 12:57N 45°39' W 122°45'0 0.0
2017-Oct-16 12:27N 45°39' W 122°45'0 0.1
2017-Oct-16 12:00N 45°39' W 122°45'0 0.1
2017-Oct-16 11:30N 45°39' W 122°45'0 0.0
2017-Oct-16 11:00N 45°39' W 122°45'0 0.0
2017-Oct-16 10:27N 45°39' W 122°45'1 1.1
2017-Oct-16 10:00N 45°39' W 122°44'0 0.2
2017-Oct-16 09:29N 45°39' W 122°45'0 0.4
2017-Oct-16 08:59N 45°39' W 122°44'1 1.5
2017-Oct-16 08:29N 45°38' W 122°43'1 1.6
2017-Oct-16 07:50N 45°38' W 122°42'0 0.2
2017-Oct-16 06:55N 45°38' W 122°42'3 4.4
2017-Oct-16 06:20N 45°39' W 122°45'0 0.0
2017-Oct-16 05:56N 45°39' W 122°45'0 0.0
2017-Oct-16 05:29N 45°39' W 122°45'0 0.0
2017-Oct-16 04:50N 45°39' W 122°45'0 0.0
2017-Oct-16 04:29N 45°39' W 122°45'0 0.0
2017-Oct-16 03:59N 45°39' W 122°45'0 0.0
2017-Oct-16 03:29N 45°39' W 122°45'0 0.0
2017-Oct-16 02:59N 45°39' W 122°45'0 0.0
2017-Oct-16 02:14N 45°39' W 122°45'0 0.0
2017-Oct-16 01:56N 45°39' W 122°45'0 0.0
2017-Oct-16 01:23N 45°39' W 122°45'0 0.0
2017-Oct-16 00:56N 45°39' W 122°45'0 0.0
2017-Oct-16 00:29N 45°39' W 122°45'0 0.0
2017-Oct-15 23:59N 45°39' W 122°45'0 0.0
2017-Oct-15 23:29N 45°39' W 122°45'0 0.0
2017-Oct-15 22:59N 45°39' W 122°45'0 0.0
2017-Oct-15 22:29N 45°39' W 122°45'0 0.0
2017-Oct-15 21:59N 45°39' W 122°45'2 3.3
2017-Oct-15 21:30N 45°38' W 122°43'0 0.1
2017-Oct-15 21:00N 45°38' W 122°43'2 3.2
2017-Oct-15 20:30N 45°39' W 122°45'0 0.0
2017-Oct-15 20:00N 45°39' W 122°45'0 0.0
2017-Oct-15 19:25N 45°39' W 122°45'0 0.0
2017-Oct-15 19:00N 45°39' W 122°45'0 0.0
2017-Oct-15 18:30N 45°39' W 122°45'0 0.0
2017-Oct-15 18:01N 45°39' W 122°45'0 0.0
2017-Oct-15 17:30N 45°39' W 122°45'0 0.0
2017-Oct-15 17:00N 45°39' W 122°45'0 0.0
2017-Oct-15 16:31N 45°39' W 122°45'0 0.0
2017-Oct-15 16:00N 45°39' W 122°45'0 0.0
2017-Oct-15 15:31N 45°39' W 122°45'0 0.0
2017-Oct-15 15:01N 45°39' W 122°45'0 0.0
2017-Oct-15 13:54N 45°39' W 122°45'0 0.0
2017-Oct-15 13:30N 45°39' W 122°45'0 0.0
2017-Oct-15 13:01N 45°39' W 122°45'0 0.0
2017-Oct-15 12:30N 45°39' W 122°45'1 2.5
2017-Oct-15 12:01N 45°38' W 122°43'0 0.0
2017-Oct-15 11:31N 45°38' W 122°43'1 1.4
2017-Oct-15 11:01N 45°39' W 122°44'1 2.1
2017-Oct-15 10:30N 45°39' W 122°45'1 1.3
2017-Oct-15 09:56N 45°39' W 122°45'0 0.0
2017-Oct-15 09:26N 45°39' W 122°45'0 0.0
2017-Oct-15 08:47N 45°39' W 122°45'0 0.0
2017-Oct-15 08:29N 45°39' W 122°45'0 0.0
2017-Oct-15 07:51N 45°39' W 122°45'0 0.0
2017-Oct-15 07:30N 45°39' W 122°45'0 0.0
2017-Oct-15 07:00N 45°39' W 122°45'0 0.0
2017-Oct-15 06:29N 45°39' W 122°45'0 0.0
2017-Oct-15 05:51N 45°39' W 122°45'0 0.0
2017-Oct-15 05:24N 45°39' W 122°45'0 0.0
2017-Oct-15 04:56N 45°39' W 122°45'0 0.0
2017-Oct-15 04:26N 45°39' W 122°45'0 0.0
2017-Oct-15 03:59N 45°39' W 122°45'0 0.0
2017-Oct-15 03:29N 45°39' W 122°45'0 0.0
2017-Oct-15 02:59N 45°39' W 122°45'0 0.0
2017-Oct-15 01:17N 45°39' W 122°45'0 0.1
2017-Oct-15 00:56N 45°39' W 122°45'0 0.1
2017-Oct-15 00:29N 45°39' W 122°45'0 0.0
2017-Oct-14 23:56N 45°39' W 122°45'0 0.0
2017-Oct-14 23:23N 45°39' W 122°45'0 0.0
2017-Oct-14 22:50N 45°39' W 122°45'0 0.0
2017-Oct-14 22:29N 45°39' W 122°45'0 0.0
2017-Oct-14 21:59N 45°39' W 122°45'0 0.0
2017-Oct-14 21:29N 45°39' W 122°45'0 0.0
2017-Oct-14 21:00N 45°39' W 122°45'2 4.7
2017-Oct-14 20:30N 45°37' W 122°47'4 7.5
2017-Oct-14 20:01N 45°34' W 122°44'0 0.8
2017-Oct-14 19:31N 45°34' W 122°43'0 0.6
2017-Oct-14 19:00N 45°34' W 122°43'1 1.2
2017-Oct-14 18:30N 45°34' W 122°44'0 0.1
2017-Oct-14 18:00N 45°34' W 122°44'0 0.0
2017-Oct-14 17:30N 45°34' W 122°44'0 0.0
2017-Oct-14 17:00N 45°34' W 122°44'1 1.2
2017-Oct-14 16:30N 45°34' W 122°44'4 8.3
2017-Oct-14 16:00N 45°38' W 122°47'2 3.6
2017-Oct-14 15:30N 45°39' W 122°45'0 0.1
2017-Oct-14 14:58N 45°39' W 122°45'0 0.0
2017-Oct-14 14:28N 45°39' W 122°45'0 0.0
2017-Oct-14 13:55N 45°39' W 122°45'0 0.0
2017-Oct-14 13:22N 45°39' W 122°45'0 0.0
2017-Oct-14 12:58N 45°39' W 122°45'0 0.0
2017-Oct-14 12:28N 45°39' W 122°45'0 0.0
2017-Oct-14 11:55N 45°39' W 122°45'0 0.0
2017-Oct-14 11:25N 45°39' W 122°45'0 0.0
2017-Oct-14 10:52N 45°39' W 122°45'0 0.0
2017-Oct-14 10:28N 45°39' W 122°45'0 0.0
2017-Oct-14 09:55N 45°39' W 122°45'0 0.0
2017-Oct-14 09:16N 45°39' W 122°45'0 0.0
2017-Oct-14 08:58N 45°39' W 122°45'0 0.0
2017-Oct-14 08:25N 45°39' W 122°45'0 0.0
2017-Oct-14 07:53N 45°39' W 122°45'0 0.0
2017-Oct-14 07:19N 45°39' W 122°45'0 0.0
2017-Oct-14 06:56N 45°39' W 122°45'0 0.0
2017-Oct-14 06:29N 45°39' W 122°45'0 0.0
2017-Oct-14 05:56N 45°39' W 122°45'0 0.0
2017-Oct-14 05:29N 45°39' W 122°45'0 0.0
2017-Oct-14 04:59N 45°39' W 122°45'0 0.0
2017-Oct-14 04:23N 45°39' W 122°45'0 0.0
2017-Oct-14 03:47N 45°39' W 122°45'1 1.7
2017-Oct-14 03:21N 45°39' W 122°46'2 6.4
2017-Oct-14 03:01N 45°37' W 122°47'1 2.0
2017-Oct-14 02:30N 45°36' W 122°47'0 0.7
2017-Oct-14 02:00N 45°36' W 122°47'3 5.0
2017-Oct-14 01:29N 45°39' W 122°46'1 2.3
2017-Oct-14 01:00N 45°40' W 122°46'1 2.9
2017-Oct-14 00:30N 45°39' W 122°45'0 0.0
2017-Oct-14 00:00N 45°39' W 122°45'0 0.0
2017-Oct-13 23:31N 45°39' W 122°45'0 0.1
2017-Oct-13 22:54N 45°39' W 122°45'0 0.0
2017-Oct-13 22:24N 45°39' W 122°45'0 0.0
2017-Oct-13 22:00N 45°39' W 122°45'0 0.0
2017-Oct-13 21:16N 45°39' W 122°45'0 0.0
2017-Oct-13 21:00N 45°39' W 122°45'0 0.0
2017-Oct-13 20:30N 45°39' W 122°45'0 0.0
2017-Oct-13 20:00N 45°39' W 122°45'0 0.0
2017-Oct-13 19:30N 45°39' W 122°45'0 0.0
2017-Oct-13 19:01N 45°39' W 122°45'0 0.0
2017-Oct-13 18:21N 45°39' W 122°45'0 0.0
2017-Oct-13 18:00N 45°39' W 122°45'0 0.0
2017-Oct-13 17:13N 45°39' W 122°45'0 0.0
2017-Oct-13 17:00N 45°39' W 122°45'0 0.0
2017-Oct-13 16:30N 45°39' W 122°45'0 0.0
2017-Oct-13 16:00N 45°39' W 122°45'0 0.0
2017-Oct-13 15:30N 45°39' W 122°45'0 0.0
2017-Oct-13 15:01N 45°39' W 122°45'0 0.0
2017-Oct-13 14:30N 45°39' W 122°45'0 0.0
2017-Oct-13 13:51N 45°39' W 122°45'0 1.3
2017-Oct-13 13:30N 45°38' W 122°45'0 0.6
2017-Oct-13 12:50N 45°39' W 122°45'1 2.3
2017-Oct-13 12:30N 45°39' W 122°46'1 0.9
2017-Oct-13 11:55N 45°39' W 122°46'1 2.1
2017-Oct-13 11:31N 45°39' W 122°46'1 0.8
2017-Oct-13 10:38N 45°39' W 122°45'0 0.0
2017-Oct-13 10:26N 45°39' W 122°45'0 0.0
2017-Oct-13 09:56N 45°39' W 122°45'0 0.0
2017-Oct-13 09:14N 45°39' W 122°45'0 0.0
2017-Oct-13 08:59N 45°39' W 122°45'0 0.0
2017-Oct-13 07:41N 45°39' W 122°45'0 0.0
2017-Oct-13 07:23N 45°39' W 122°45'0 0.0
2017-Oct-13 06:59N 45°39' W 122°45'0 0.0
2017-Oct-13 06:29N 45°39' W 122°45'0 0.0
2017-Oct-13 05:53N 45°39' W 122°45'0 0.0
2017-Oct-13 05:23N 45°39' W 122°45'0 0.0
2017-Oct-13 04:53N 45°39' W 122°45'0 0.0
2017-Oct-13 04:29N 45°39' W 122°45'0 0.0
2017-Oct-13 03:56N 45°39' W 122°45'0 0.0
2017-Oct-13 03:26N 45°39' W 122°45'0 0.8
2017-Oct-13 03:00N 45°39' W 122°45'3 5.1
2017-Oct-13 02:21N 45°36' W 122°47'0 0.7
2017-Oct-13 02:01N 45°36' W 122°47'0 0.1
2017-Oct-13 01:30N 45°36' W 122°47'0 0.2
2017-Oct-13 01:01N 45°36' W 122°47'3 6.4
2017-Oct-13 00:30N 45°39' W 122°46'1 1.5
2017-Oct-13 00:00N 45°39' W 122°45'0 0.1
2017-Oct-12 23:30N 45°39' W 122°45'0 0.0
2017-Oct-12 23:00N 45°39' W 122°45'0 0.1
2017-Oct-12 22:30N 45°39' W 122°45'0 0.1
2017-Oct-12 22:01N 45°39' W 122°45'0 0.1
2017-Oct-12 21:30N 45°39' W 122°45'2 3.6
2017-Oct-12 21:00N 45°38' W 122°47'0 0.0
2017-Oct-12 20:30N 45°38' W 122°47'0 0.2
2017-Oct-12 20:00N 45°38' W 122°47'1 1.5
2017-Oct-12 19:30N 45°38' W 122°47'1 1.7
2017-Oct-12 18:46N 45°39' W 122°45'0 0.1
2017-Oct-12 18:08N 45°39' W 122°45'0 0.1
2017-Oct-12 17:22N 45°39' W 122°45'0 0.0
2017-Oct-12 16:55N 45°39' W 122°45'0 0.0
2017-Oct-12 16:25N 45°39' W 122°45'0 0.0
2017-Oct-12 15:52N 45°39' W 122°45'0 0.0
2017-Oct-12 15:26N 45°39' W 122°45'0 0.0
2017-Oct-12 14:56N 45°39' W 122°45'0 0.1
2017-Oct-12 14:23N 45°39' W 122°45'0 0.1
2017-Oct-12 13:49N 45°39' W 122°45'0 0.0
2017-Oct-12 13:28N 45°39' W 122°45'0 0.1
2017-Oct-12 12:49N 45°39' W 122°45'0 0.1
2017-Oct-12 12:28N 45°39' W 122°45'0 0.0
2017-Oct-12 11:49N 45°39' W 122°45'0 0.1
2017-Oct-12 11:28N 45°39' W 122°45'0 0.0
2017-Oct-12 10:55N 45°39' W 122°45'0 0.1
2017-Oct-12 10:28N 45°39' W 122°45'0 0.0
2017-Oct-12 09:49N 45°39' W 122°45'0 0.0
2017-Oct-12 09:25N 45°39' W 122°45'0 0.0
2017-Oct-12 08:55N 45°39' W 122°45'0 0.1
2017-Oct-12 08:28N 45°39' W 122°45'0 0.0
2017-Oct-12 07:43N 45°39' W 122°45'0 0.1
2017-Oct-12 07:19N 45°39' W 122°45'0 0.0
2017-Oct-12 06:58N 45°39' W 122°45'0 0.0
2017-Oct-12 06:28N 45°39' W 122°45'0 0.1
2017-Oct-12 05:49N 45°39' W 122°45'2 4.7
2017-Oct-12 05:26N 45°38' W 122°43'1 1.9
2017-Oct-12 05:00N 45°38' W 122°42'2 3.2
2017-Oct-12 04:31N 45°38' W 122°44'1 2.0
2017-Oct-12 04:01N 45°39' W 122°45'0 0.0
2017-Oct-12 03:30N 45°39' W 122°45'1 1.1
2017-Oct-12 03:00N 45°39' W 122°44'2 4.2
2017-Oct-12 02:30N 45°38' W 122°47'3 6.6
2017-Oct-12 02:00N 45°35' W 122°45'2 2.8
2017-Oct-12 01:25N 45°34' W 122°44'0 0.0
2017-Oct-12 00:58N 45°34' W 122°44'0 0.0
2017-Oct-11 23:49N 45°34' W 122°44'0 0.3
2017-Oct-11 23:30N 45°34' W 122°44'0 0.2
2017-Oct-11 23:00N 45°34' W 122°44'0 0.1
2017-Oct-11 22:15N 45°34' W 122°44'0 0.0
2017-Oct-11 21:58N 45°34' W 122°44'0 0.2
2017-Oct-11 21:27N 45°34' W 122°44'0 0.0
2017-Oct-11 21:00N 45°34' W 122°44'0 0.0
2017-Oct-11 20:27N 45°34' W 122°44'0 0.0
2017-Oct-11 20:00N 45°34' W 122°44'0 0.0
2017-Oct-11 19:24N 45°34' W 122°44'0 0.0
2017-Oct-11 19:00N 45°34' W 122°44'0 0.0
2017-Oct-11 18:15N 45°34' W 122°44'0 0.0
2017-Oct-11 18:00N 45°34' W 122°44'0 0.0
2017-Oct-11 17:30N 45°34' W 122°44'0 0.0
2017-Oct-11 16:57N 45°34' W 122°44'5 0.3
2017-Oct-11 00:00N 45°39' W 122°45'0 0.0
2017-Oct-10 23:24N 45°39' W 122°45'0 0.0
2017-Oct-10 22:45N 45°39' W 122°45'0 0.0
2017-Oct-10 22:30N 45°39' W 122°45'0 0.6
2017-Oct-10 22:00N 45°39' W 122°45'0 0.5
2017-Oct-10 21:28N 45°39' W 122°45'0 0.1
2017-Oct-10 20:58N 45°39' W 122°45'0 0.0
2017-Oct-10 20:28N 45°39' W 122°45'0 0.0
2017-Oct-10 19:55N 45°39' W 122°45'0 0.0
2017-Oct-10 19:28N 45°39' W 122°45'0 0.0
2017-Oct-10 18:58N 45°39' W 122°45'0 0.0
2017-Oct-10 18:19N 45°39' W 122°45'0 0.0
2017-Oct-10 17:58N 45°39' W 122°45'0 0.0
2017-Oct-10 17:28N 45°39' W 122°45'0 0.0
2017-Oct-10 16:58N 45°39' W 122°45'0 0.0
2017-Oct-10 16:28N 45°39' W 122°45'0 0.1
2017-Oct-10 15:55N 45°39' W 122°45'0 0.1
2017-Oct-10 15:25N 45°39' W 122°45'0 0.0
2017-Oct-10 14:52N 45°39' W 122°45'0 0.0
2017-Oct-10 13:55N 45°39' W 122°45'0 0.0
2017-Oct-10 13:30N 45°39' W 122°45'1 1.5
2017-Oct-10 13:00N 45°39' W 122°46'3 5.9
2017-Oct-10 12:30N 45°38' W 122°42'0 0.1
2017-Oct-10 12:00N 45°38' W 122°42'0 0.8
2017-Oct-10 11:30N 45°38' W 122°42'2 3.3
2017-Oct-10 11:00N 45°39' W 122°45'0 0.1
2017-Oct-10 10:30N 45°39' W 122°45'2 3.4
2017-Oct-10 10:00N 45°38' W 122°47'4 8.7
2017-Oct-10 09:30N 45°34' W 122°44'1 1.1
2017-Oct-10 08:49N 45°34' W 122°44'0 0.0
2017-Oct-10 08:28N 45°34' W 122°44'0 0.0
2017-Oct-10 07:52N 45°34' W 122°44'0 0.0
2017-Oct-10 07:28N 45°34' W 122°44'0 0.0
2017-Oct-10 06:55N 45°34' W 122°44'0 0.0
2017-Oct-10 06:28N 45°34' W 122°44'0 0.0
2017-Oct-10 05:55N 45°34' W 122°44'0 0.0
2017-Oct-10 05:28N 45°34' W 122°44'0 0.0
2017-Oct-10 04:58N 45°34' W 122°44'0 0.0
2017-Oct-10 04:28N 45°34' W 122°44'0 0.0
2017-Oct-10 03:43N 45°34' W 122°44'0 0.0
2017-Oct-10 03:28N 45°34' W 122°44'0 0.0
2017-Oct-10 02:52N 45°34' W 122°44'0 0.0
2017-Oct-10 02:28N 45°34' W 122°44'0 0.0
2017-Oct-10 01:58N 45°34' W 122°44'0 0.0
2017-Oct-10 01:10N 45°34' W 122°44'0 0.0
2017-Oct-10 00:58N 45°34' W 122°44'0 0.0
2017-Oct-10 00:16N 45°34' W 122°44'0 0.0
2017-Oct-09 23:58N 45°34' W 122°44'0 0.0
2017-Oct-09 23:28N 45°34' W 122°44'0 0.0
2017-Oct-09 22:58N 45°34' W 122°44'0 0.0
2017-Oct-09 22:28N 45°34' W 122°44'0 0.0
2017-Oct-09 21:58N 45°34' W 122°44'0 0.0
2017-Oct-09 21:19N 45°34' W 122°44'0 0.0
2017-Oct-09 20:55N 45°34' W 122°44'0 0.0
2017-Oct-09 20:28N 45°34' W 122°44'0 0.0
2017-Oct-09 19:58N 45°34' W 122°44'0 0.0
2017-Oct-09 19:30N 45°34' W 122°44'4 7.2
2017-Oct-09 19:00N 45°36' W 122°47'3 5.6
2017-Oct-09 18:30N 45°39' W 122°45'2 4.5
2017-Oct-09 18:00N 45°38' W 122°42'4 7.1
2017-Oct-09 17:30N 45°38' W 122°47'4 8.2
2017-Oct-09 17:01N 45°35' W 122°45'1 2.5
2017-Oct-09 16:30N 45°34' W 122°44'0 0.0
2017-Oct-09 16:00N 45°34' W 122°44'0 0.0
2017-Oct-09 15:30N 45°34' W 122°44'0 0.2
2017-Oct-09 15:00N 45°34' W 122°44'2 3.1
2017-Oct-09 14:30N 45°33' W 122°42'0 0.1
2017-Oct-09 14:01N 45°33' W 122°42'0 0.0
2017-Oct-09 13:30N 45°33' W 122°42'1 1.2
2017-Oct-09 13:01N 45°33' W 122°42'1 2.1
2017-Oct-09 12:30N 45°34' W 122°44'0 0.1
2017-Oct-09 12:00N 45°34' W 122°44'0 0.0
2017-Oct-09 11:30N 45°34' W 122°44'0 0.0
2017-Oct-09 10:59N 45°34' W 122°44'0 0.0
2017-Oct-09 10:13N 45°34' W 122°44'0 0.0
2017-Oct-09 10:00N 45°34' W 122°44'0 0.0
2017-Oct-09 09:30N 45°34' W 122°44'0 0.0
2017-Oct-09 09:00N 45°34' W 122°44'0 0.0
2017-Oct-09 08:30N 45°34' W 122°44'0 0.0
2017-Oct-09 08:00N 45°34' W 122°44'0 0.0
2017-Oct-09 07:30N 45°34' W 122°44'0 0.0
2017-Oct-09 07:00N 45°34' W 122°44'0 0.0
2017-Oct-09 06:30N 45°34' W 122°44'0 0.0
2017-Oct-09 06:00N 45°34' W 122°44'0 0.0
2017-Oct-09 05:30N 45°34' W 122°44'0 0.0
2017-Oct-09 05:00N 45°34' W 122°44'2 4.7
2017-Oct-09 04:30N 45°32' W 122°41'0 0.4
2017-Oct-09 04:00N 45°32' W 122°41'0 0.2
2017-Oct-09 03:31N 45°32' W 122°41'2 5.0
2017-Oct-09 03:01N 45°34' W 122°44'0 0.0
2017-Oct-09 02:30N 45°34' W 122°44'0 0.0
2017-Oct-09 02:00N 45°34' W 122°44'0 0.0
2017-Oct-09 01:30N 45°34' W 122°44'0 0.0
2017-Oct-09 01:00N 45°34' W 122°44'0 0.0
2017-Oct-09 00:30N 45°34' W 122°44'3 6.2
2017-Oct-09 00:00N 45°36' W 122°47'3 5.1
2017-Oct-08 23:30N 45°38' W 122°47'1 1.7
2017-Oct-08 23:00N 45°39' W 122°46'4 5.0
2017-Oct-08 22:16N 45°35' W 122°46'2 8.9
2017-Oct-08 22:00N 45°34' W 122°44'0 0.4
2017-Oct-08 21:30N 45°34' W 122°44'0 0.0
2017-Oct-08 21:00N 45°34' W 122°44'0 0.0
2017-Oct-08 20:30N 45°34' W 122°44'0 0.0
2017-Oct-08 20:00N 45°34' W 122°44'0 0.0
2017-Oct-08 19:30N 45°34' W 122°44'0 0.0
2017-Oct-08 19:00N 45°34' W 122°44'0 0.0
2017-Oct-08 18:30N 45°34' W 122°44'0 0.0
2017-Oct-08 18:01N 45°34' W 122°44'0 0.0
2017-Oct-08 17:30N 45°34' W 122°44'0 0.0
2017-Oct-08 17:00N 45°34' W 122°44'0 0.0
2017-Oct-08 16:30N 45°34' W 122°44'0 0.0
2017-Oct-08 16:00N 45°34' W 122°44'0 0.0
2017-Oct-08 15:31N 45°34' W 122°44'0 0.0
2017-Oct-08 15:00N 45°34' W 122°44'0 0.0
2017-Oct-08 14:30N 45°34' W 122°44'0 0.0
2017-Oct-08 14:00N 45°34' W 122°44'0 0.0
2017-Oct-08 13:30N 45°34' W 122°44'0 0.0
2017-Oct-08 13:00N 45°34' W 122°44'0 0.0
2017-Oct-08 12:30N 45°34' W 122°44'0 0.0
2017-Oct-08 12:01N 45°34' W 122°44'0 0.0
2017-Oct-08 11:30N 45°34' W 122°44'0 0.0
2017-Oct-08 11:00N 45°34' W 122°44'0 0.0
2017-Oct-08 10:30N 45°34' W 122°44'0 0.0
2017-Oct-08 10:01N 45°34' W 122°44'0 0.0
2017-Oct-08 09:30N 45°34' W 122°44'0 0.0
2017-Oct-08 09:00N 45°34' W 122°44'0 0.0
2017-Oct-08 08:30N 45°34' W 122°44'0 0.0
2017-Oct-08 08:01N 45°34' W 122°44'0 0.0
2017-Oct-08 07:31N 45°34' W 122°44'0 0.0
2017-Oct-08 07:00N 45°34' W 122°44'0 0.0
2017-Oct-08 06:30N 45°34' W 122°44'0 0.0
2017-Oct-08 06:00N 45°34' W 122°44'0 0.0
2017-Oct-08 05:30N 45°34' W 122°44'0 0.0
2017-Oct-08 05:00N 45°34' W 122°44'0 0.0
2017-Oct-08 04:30N 45°34' W 122°44'0 0.0
2017-Oct-08 04:00N 45°34' W 122°44'0 0.0
2017-Oct-08 03:30N 45°34' W 122°44'0 0.0
2017-Oct-08 03:00N 45°34' W 122°44'0 0.0
2017-Oct-08 02:30N 45°34' W 122°44'0 0.0
2017-Oct-08 02:00N 45°34' W 122°44'0 0.0
2017-Oct-08 01:30N 45°34' W 122°44'0 0.0
2017-Oct-08 01:00N 45°34' W 122°44'0 0.0
2017-Oct-08 00:30N 45°34' W 122°44'0 0.0
2017-Oct-08 00:00N 45°34' W 122°44'  
Track history (hours):
 
Tides and Currents Weather Stations Pressure Air Temp Water Temp Dewpoint Dewpoint Depression Visibility Wind Speed Wind Dir Waves Ship Positions

Vancouver

Owner: Shaver Transportation Company, Portland, OR. More information available from US FCC via Universal Licensing System and Coast Guard Vessel Documentation Center.

Last reported at 2017-Oct-18 00:00 UTC. Time now 2017-Oct-18 00:16 UTC.
Position N 46°05' W 122°56'.

Length 23 m.

Type: Tug. MMSI: 367513220.

Date/timePositionNaut miles runAvg speedWind from/ knotsBaromVisibWave heightAir tempDewpointWater temp
2017-Oct-18 00:00N 46°05' W 122°56'0 0.0
2017-Oct-17 23:31N 46°05' W 122°56'0 0.0
2017-Oct-17 23:00N 46°05' W 122°56'0 0.0
2017-Oct-17 22:30N 46°05' W 122°56'0 0.0
2017-Oct-17 22:01N 46°05' W 122°56'0 0.0
2017-Oct-17 21:31N 46°05' W 122°56'0 0.0
2017-Oct-17 21:01N 46°05' W 122°56'0 0.0
2017-Oct-17 20:31N 46°05' W 122°56'0 0.0
2017-Oct-17 20:00N 46°05' W 122°56'1 1.1
2017-Oct-17 19:30N 46°06' W 122°56'0 0.4
2017-Oct-17 19:01N 46°06' W 122°56'2 3.0
2017-Oct-17 18:30N 46°07' W 122°58'0 0.3
2017-Oct-17 17:55N 46°06' W 122°58'2 3.5
2017-Oct-17 17:25N 46°05' W 122°56'0 0.0
2017-Oct-17 16:52N 46°05' W 122°56'0 0.9
2017-Oct-17 16:30N 46°06' W 122°55'2 4.3
2017-Oct-17 16:00N 46°04' W 122°53'5 9.4
2017-Oct-17 15:30N 45°60' W 122°51'4 9.0
2017-Oct-17 15:00N 45°55' W 122°48'4 8.5
2017-Oct-17 14:30N 45°51' W 122°47'7 7.2
2017-Oct-17 13:30N 45°44' W 122°46'3 6.8
2017-Oct-17 13:00N 45°41' W 122°46'2 4.5
2017-Oct-17 12:30N 45°39' W 122°45'0 0.6
2017-Oct-17 12:00N 45°39' W 122°45'2 3.1
2017-Oct-17 11:30N 45°38' W 122°43'1 1.4
2017-Oct-17 11:00N 45°38' W 122°42'2 4.3
2017-Oct-17 10:29N 45°39' W 122°45'0 0.1
2017-Oct-17 10:00N 45°39' W 122°45'0 0.4
2017-Oct-17 09:31N 45°39' W 122°44'2 4.1
2017-Oct-17 09:00N 45°38' W 122°42'0 0.2
2017-Oct-17 08:30N 45°38' W 122°42'1 2.2
2017-Oct-17 08:01N 45°38' W 122°43'0 0.9
2017-Oct-17 07:30N 45°39' W 122°44'1 1.8
2017-Oct-17 07:00N 45°39' W 122°45'0 0.0
2017-Oct-17 06:27N 45°39' W 122°45'0 0.0
2017-Oct-17 06:00N 45°39' W 122°45'0 0.0
2017-Oct-17 05:30N 45°39' W 122°45'0 0.0
2017-Oct-17 05:00N 45°39' W 122°45'0 0.0
2017-Oct-17 04:30N 45°39' W 122°45'0 0.0
2017-Oct-17 04:00N 45°39' W 122°45'0 0.1
2017-Oct-17 03:12N 45°39' W 122°45'0 0.0
2017-Oct-17 03:00N 45°39' W 122°45'0 0.0
2017-Oct-17 02:30N 45°39' W 122°45'0 0.0
2017-Oct-17 02:00N 45°39' W 122°45'0 0.0
2017-Oct-17 01:27N 45°39' W 122°45'0 0.0
2017-Oct-17 01:00N 45°39' W 122°45'0 0.0
2017-Oct-17 00:27N 45°39' W 122°45'0 0.0
2017-Oct-17 00:00N 45°39' W 122°45'0 0.0
2017-Oct-16 23:18N 45°39' W 122°45'0 0.0
2017-Oct-16 23:00N 45°39' W 122°45'0 0.0
2017-Oct-16 22:30N 45°39' W 122°45'0 0.0
2017-Oct-16 21:51N 45°39' W 122°45'0 0.0
2017-Oct-16 21:30N 45°39' W 122°45'0 0.0
2017-Oct-16 21:00N 45°39' W 122°45'0 0.0
2017-Oct-16 20:27N 45°39' W 122°45'0 0.0
2017-Oct-16 19:57N 45°39' W 122°45'0 0.0
2017-Oct-16 19:21N 45°39' W 122°45'0 0.0
2017-Oct-16 18:54N 45°39' W 122°45'0 0.0
2017-Oct-16 18:27N 45°39' W 122°45'0 0.0
2017-Oct-16 17:57N 45°39' W 122°45'0 0.1
2017-Oct-16 17:30N 45°39' W 122°45'0 0.1
2017-Oct-16 17:00N 45°39' W 122°45'0 0.0
2017-Oct-16 16:30N 45°39' W 122°45'0 0.0
2017-Oct-16 16:00N 45°39' W 122°45'0 0.0
2017-Oct-16 15:30N 45°39' W 122°45'0 0.0
2017-Oct-16 15:00N 45°39' W 122°45'0 0.0
2017-Oct-16 14:00N 45°39' W 122°45'0 0.0
2017-Oct-16 13:27N 45°39' W 122°45'0 0.0
2017-Oct-16 12:57N 45°39' W 122°45'0 0.0
2017-Oct-16 12:27N 45°39' W 122°45'0 0.1
2017-Oct-16 12:00N 45°39' W 122°45'0 0.1
2017-Oct-16 11:30N 45°39' W 122°45'0 0.0
2017-Oct-16 11:00N 45°39' W 122°45'0 0.0
2017-Oct-16 10:27N 45°39' W 122°45'1 1.1
2017-Oct-16 10:00N 45°39' W 122°44'0 0.2
2017-Oct-16 09:29N 45°39' W 122°45'0 0.4
2017-Oct-16 08:59N 45°39' W 122°44'1 1.5
2017-Oct-16 08:29N 45°38' W 122°43'1 1.6
2017-Oct-16 07:50N 45°38' W 122°42'0 0.2
2017-Oct-16 06:55N 45°38' W 122°42'3 4.4
2017-Oct-16 06:20N 45°39' W 122°45'0 0.0
2017-Oct-16 05:56N 45°39' W 122°45'0 0.0
2017-Oct-16 05:29N 45°39' W 122°45'0 0.0
2017-Oct-16 04:50N 45°39' W 122°45'0 0.0
2017-Oct-16 04:29N 45°39' W 122°45'0 0.0
2017-Oct-16 03:59N 45°39' W 122°45'0 0.0
2017-Oct-16 03:29N 45°39' W 122°45'0 0.0
2017-Oct-16 02:59N 45°39' W 122°45'0 0.0
2017-Oct-16 02:14N 45°39' W 122°45'0 0.0
2017-Oct-16 01:56N 45°39' W 122°45'0 0.0
2017-Oct-16 01:23N 45°39' W 122°45'0 0.0
2017-Oct-16 00:56N 45°39' W 122°45'0 0.0
2017-Oct-16 00:29N 45°39' W 122°45'0 0.0
2017-Oct-15 23:59N 45°39' W 122°45'0 0.0
2017-Oct-15 23:29N 45°39' W 122°45'0 0.0
2017-Oct-15 22:59N 45°39' W 122°45'0 0.0
2017-Oct-15 22:29N 45°39' W 122°45'0 0.0
2017-Oct-15 21:59N 45°39' W 122°45'2 3.3
2017-Oct-15 21:30N 45°38' W 122°43'0 0.1
2017-Oct-15 21:00N 45°38' W 122°43'2 3.2
2017-Oct-15 20:30N 45°39' W 122°45'0 0.0
2017-Oct-15 20:00N 45°39' W 122°45'0 0.0
2017-Oct-15 19:25N 45°39' W 122°45'0 0.0
2017-Oct-15 19:00N 45°39' W 122°45'0 0.0
2017-Oct-15 18:30N 45°39' W 122°45'0 0.0
2017-Oct-15 18:01N 45°39' W 122°45'0 0.0
2017-Oct-15 17:30N 45°39' W 122°45'0 0.0
2017-Oct-15 17:00N 45°39' W 122°45'0 0.0
2017-Oct-15 16:31N 45°39' W 122°45'0 0.0
2017-Oct-15 16:00N 45°39' W 122°45'0 0.0
2017-Oct-15 15:31N 45°39' W 122°45'0 0.0
2017-Oct-15 15:01N 45°39' W 122°45'0 0.0
2017-Oct-15 13:54N 45°39' W 122°45'0 0.0
2017-Oct-15 13:30N 45°39' W 122°45'0 0.0
2017-Oct-15 13:01N 45°39' W 122°45'0 0.0
2017-Oct-15 12:30N 45°39' W 122°45'1 2.5
2017-Oct-15 12:01N 45°38' W 122°43'0 0.0
2017-Oct-15 11:31N 45°38' W 122°43'1 1.4
2017-Oct-15 11:01N 45°39' W 122°44'1 2.1
2017-Oct-15 10:30N 45°39' W 122°45'1 1.3
2017-Oct-15 09:56N 45°39' W 122°45'0 0.0
2017-Oct-15 09:26N 45°39' W 122°45'0 0.0
2017-Oct-15 08:47N 45°39' W 122°45'0 0.0
2017-Oct-15 08:29N 45°39' W 122°45'0 0.0
2017-Oct-15 07:51N 45°39' W 122°45'0 0.0
2017-Oct-15 07:30N 45°39' W 122°45'0 0.0
2017-Oct-15 07:00N 45°39' W 122°45'0 0.0
2017-Oct-15 06:29N 45°39' W 122°45'0 0.0
2017-Oct-15 05:51N 45°39' W 122°45'0 0.0
2017-Oct-15 05:24N 45°39' W 122°45'0 0.0
2017-Oct-15 04:56N 45°39' W 122°45'0 0.0
2017-Oct-15 04:26N 45°39' W 122°45'0 0.0
2017-Oct-15 03:59N 45°39' W 122°45'0 0.0
2017-Oct-15 03:29N 45°39' W 122°45'0 0.0
2017-Oct-15 02:59N 45°39' W 122°45'0 0.0
2017-Oct-15 01:17N 45°39' W 122°45'0 0.1
2017-Oct-15 00:56N 45°39' W 122°45'0 0.1
2017-Oct-15 00:29N 45°39' W 122°45'0 0.0
2017-Oct-14 23:56N 45°39' W 122°45'0 0.0
2017-Oct-14 23:23N 45°39' W 122°45'0 0.0
2017-Oct-14 22:50N 45°39' W 122°45'0 0.0
2017-Oct-14 22:29N 45°39' W 122°45'0 0.0
2017-Oct-14 21:59N 45°39' W 122°45'0 0.0
2017-Oct-14 21:29N 45°39' W 122°45'0 0.0
2017-Oct-14 21:00N 45°39' W 122°45'2 4.7
2017-Oct-14 20:30N 45°37' W 122°47'4 7.5
2017-Oct-14 20:01N 45°34' W 122°44'0 0.8
2017-Oct-14 19:31N 45°34' W 122°43'0 0.6
2017-Oct-14 19:00N 45°34' W 122°43'1 1.2
2017-Oct-14 18:30N 45°34' W 122°44'0 0.1
2017-Oct-14 18:00N 45°34' W 122°44'0 0.0
2017-Oct-14 17:30N 45°34' W 122°44'0 0.0
2017-Oct-14 17:00N 45°34' W 122°44'1 1.2
2017-Oct-14 16:30N 45°34' W 122°44'4 8.3
2017-Oct-14 16:00N 45°38' W 122°47'2 3.6
2017-Oct-14 15:30N 45°39' W 122°45'0 0.1
2017-Oct-14 14:58N 45°39' W 122°45'0 0.0
2017-Oct-14 14:28N 45°39' W 122°45'0 0.0
2017-Oct-14 13:55N 45°39' W 122°45'0 0.0
2017-Oct-14 13:22N 45°39' W 122°45'0 0.0
2017-Oct-14 12:58N 45°39' W 122°45'0 0.0
2017-Oct-14 12:28N 45°39' W 122°45'0 0.0
2017-Oct-14 11:55N 45°39' W 122°45'0 0.0
2017-Oct-14 11:25N 45°39' W 122°45'0 0.0
2017-Oct-14 10:52N 45°39' W 122°45'0 0.0
2017-Oct-14 10:28N 45°39' W 122°45'0 0.0
2017-Oct-14 09:55N 45°39' W 122°45'0 0.0
2017-Oct-14 09:16N 45°39' W 122°45'0 0.0
2017-Oct-14 08:58N 45°39' W 122°45'0 0.0
2017-Oct-14 08:25N 45°39' W 122°45'0 0.0
2017-Oct-14 07:53N 45°39' W 122°45'0 0.0
2017-Oct-14 07:19N 45°39' W 122°45'0 0.0
2017-Oct-14 06:56N 45°39' W 122°45'0 0.0
2017-Oct-14 06:29N 45°39' W 122°45'0 0.0
2017-Oct-14 05:56N 45°39' W 122°45'0 0.0
2017-Oct-14 05:29N 45°39' W 122°45'0 0.0
2017-Oct-14 04:59N 45°39' W 122°45'0 0.0
2017-Oct-14 04:23N 45°39' W 122°45'0 0.0
2017-Oct-14 03:47N 45°39' W 122°45'1 1.7
2017-Oct-14 03:21N 45°39' W 122°46'2 6.4
2017-Oct-14 03:01N 45°37' W 122°47'1 2.0
2017-Oct-14 02:30N 45°36' W 122°47'0 0.7
2017-Oct-14 02:00N 45°36' W 122°47'3 5.0
2017-Oct-14 01:29N 45°39' W 122°46'1 2.3
2017-Oct-14 01:00N 45°40' W 122°46'1 2.9
2017-Oct-14 00:30N 45°39' W 122°45'0 0.0
2017-Oct-14 00:00N 45°39' W 122°45'0 0.0
2017-Oct-13 23:31N 45°39' W 122°45'0 0.1
2017-Oct-13 22:54N 45°39' W 122°45'0 0.0
2017-Oct-13 22:24N 45°39' W 122°45'0 0.0
2017-Oct-13 22:00N 45°39' W 122°45'0 0.0
2017-Oct-13 21:16N 45°39' W 122°45'0 0.0
2017-Oct-13 21:00N 45°39' W 122°45'0 0.0
2017-Oct-13 20:30N 45°39' W 122°45'0 0.0
2017-Oct-13 20:00N 45°39' W 122°45'0 0.0
2017-Oct-13 19:30N 45°39' W 122°45'0 0.0
2017-Oct-13 19:01N 45°39' W 122°45'0 0.0
2017-Oct-13 18:21N 45°39' W 122°45'0 0.0
2017-Oct-13 18:00N 45°39' W 122°45'0 0.0
2017-Oct-13 17:13N 45°39' W 122°45'0 0.0
2017-Oct-13 17:00N 45°39' W 122°45'0 0.0
2017-Oct-13 16:30N 45°39' W 122°45'0 0.0
2017-Oct-13 16:00N 45°39' W 122°45'0 0.0
2017-Oct-13 15:30N 45°39' W 122°45'0 0.0
2017-Oct-13 15:01N 45°39' W 122°45'0 0.0
2017-Oct-13 14:30N 45°39' W 122°45'0 0.0
2017-Oct-13 13:51N 45°39' W 122°45'0 1.3
2017-Oct-13 13:30N 45°38' W 122°45'0 0.6
2017-Oct-13 12:50N 45°39' W 122°45'1 2.3
2017-Oct-13 12:30N 45°39' W 122°46'1 0.9
2017-Oct-13 11:55N 45°39' W 122°46'1 2.1
2017-Oct-13 11:31N 45°39' W 122°46'1 0.8
2017-Oct-13 10:38N 45°39' W 122°45'0 0.0
2017-Oct-13 10:26N 45°39' W 122°45'0 0.0
2017-Oct-13 09:56N 45°39' W 122°45'0 0.0
2017-Oct-13 09:14N 45°39' W 122°45'0 0.0
2017-Oct-13 08:59N 45°39' W 122°45'0 0.0
2017-Oct-13 07:41N 45°39' W 122°45'0 0.0
2017-Oct-13 07:23N 45°39' W 122°45'0 0.0
2017-Oct-13 06:59N 45°39' W 122°45'0 0.0
2017-Oct-13 06:29N 45°39' W 122°45'0 0.0
2017-Oct-13 05:53N 45°39' W 122°45'0 0.0
2017-Oct-13 05:23N 45°39' W 122°45'0 0.0
2017-Oct-13 04:53N 45°39' W 122°45'0 0.0
2017-Oct-13 04:29N 45°39' W 122°45'0 0.0
2017-Oct-13 03:56N 45°39' W 122°45'0 0.0
2017-Oct-13 03:26N 45°39' W 122°45'0 0.8
2017-Oct-13 03:00N 45°39' W 122°45'3 5.1
2017-Oct-13 02:21N 45°36' W 122°47'0 0.7
2017-Oct-13 02:01N 45°36' W 122°47'0 0.1
2017-Oct-13 01:30N 45°36' W 122°47'0 0.2
2017-Oct-13 01:01N 45°36' W 122°47'3 6.4
2017-Oct-13 00:30N 45°39' W 122°46'1 1.5
2017-Oct-13 00:00N 45°39' W 122°45'0 0.1
2017-Oct-12 23:30N 45°39' W 122°45'0 0.0
2017-Oct-12 23:00N 45°39' W 122°45'0 0.1
2017-Oct-12 22:30N 45°39' W 122°45'0 0.1
2017-Oct-12 22:01N 45°39' W 122°45'0 0.1
2017-Oct-12 21:30N 45°39' W 122°45'2 3.6
2017-Oct-12 21:00N 45°38' W 122°47'0 0.0
2017-Oct-12 20:30N 45°38' W 122°47'0 0.2
2017-Oct-12 20:00N 45°38' W 122°47'1 1.5
2017-Oct-12 19:30N 45°38' W 122°47'1 1.7
2017-Oct-12 18:46N 45°39' W 122°45'0 0.1
2017-Oct-12 18:08N 45°39' W 122°45'0 0.1
2017-Oct-12 17:22N 45°39' W 122°45'0 0.0
2017-Oct-12 16:55N 45°39' W 122°45'0 0.0
2017-Oct-12 16:25N 45°39' W 122°45'0 0.0
2017-Oct-12 15:52N 45°39' W 122°45'0 0.0
2017-Oct-12 15:26N 45°39' W 122°45'0 0.0
2017-Oct-12 14:56N 45°39' W 122°45'0 0.1
2017-Oct-12 14:23N 45°39' W 122°45'0 0.1
2017-Oct-12 13:49N 45°39' W 122°45'0 0.0
2017-Oct-12 13:28N 45°39' W 122°45'0 0.1
2017-Oct-12 12:49N 45°39' W 122°45'0 0.1
2017-Oct-12 12:28N 45°39' W 122°45'0 0.0
2017-Oct-12 11:49N 45°39' W 122°45'0 0.1
2017-Oct-12 11:28N 45°39' W 122°45'0 0.0
2017-Oct-12 10:55N 45°39' W 122°45'0 0.1
2017-Oct-12 10:28N 45°39' W 122°45'0 0.0
2017-Oct-12 09:49N 45°39' W 122°45'0 0.0
2017-Oct-12 09:25N 45°39' W 122°45'0 0.0
2017-Oct-12 08:55N 45°39' W 122°45'0 0.1
2017-Oct-12 08:28N 45°39' W 122°45'0 0.0
2017-Oct-12 07:43N 45°39' W 122°45'0 0.1
2017-Oct-12 07:19N 45°39' W 122°45'0 0.0
2017-Oct-12 06:58N 45°39' W 122°45'0 0.0
2017-Oct-12 06:28N 45°39' W 122°45'0 0.1
2017-Oct-12 05:49N 45°39' W 122°45'2 4.7
2017-Oct-12 05:26N 45°38' W 122°43'1 1.9
2017-Oct-12 05:00N 45°38' W 122°42'2 3.2
2017-Oct-12 04:31N 45°38' W 122°44'1 2.0
2017-Oct-12 04:01N 45°39' W 122°45'0 0.0
2017-Oct-12 03:30N 45°39' W 122°45'1 1.1
2017-Oct-12 03:00N 45°39' W 122°44'2 4.2
2017-Oct-12 02:30N 45°38' W 122°47'3 6.6
2017-Oct-12 02:00N 45°35' W 122°45'2 2.8
2017-Oct-12 01:25N 45°34' W 122°44'0 0.0
2017-Oct-12 00:58N 45°34' W 122°44'0 0.0
2017-Oct-11 23:49N 45°34' W 122°44'0 0.3
2017-Oct-11 23:30N 45°34' W 122°44'0 0.2
2017-Oct-11 23:00N 45°34' W 122°44'0 0.1
2017-Oct-11 22:15N 45°34' W 122°44'0 0.0
2017-Oct-11 21:58N 45°34' W 122°44'0 0.2
2017-Oct-11 21:27N 45°34' W 122°44'0 0.0
2017-Oct-11 21:00N 45°34' W 122°44'0 0.0
2017-Oct-11 20:27N 45°34' W 122°44'0 0.0
2017-Oct-11 20:00N 45°34' W 122°44'0 0.0
2017-Oct-11 19:24N 45°34' W 122°44'0 0.0
2017-Oct-11 19:00N 45°34' W 122°44'0 0.0
2017-Oct-11 18:15N 45°34' W 122°44'0 0.0
2017-Oct-11 18:00N 45°34' W 122°44'0 0.0
2017-Oct-11 17:30N 45°34' W 122°44'0 0.0
2017-Oct-11 16:57N 45°34' W 122°44'5 0.3
2017-Oct-11 00:00N 45°39' W 122°45'0 0.0
2017-Oct-10 23:24N 45°39' W 122°45'0 0.0
2017-Oct-10 22:45N 45°39' W 122°45'0 0.0
2017-Oct-10 22:30N 45°39' W 122°45'0 0.6
2017-Oct-10 22:00N 45°39' W 122°45'0 0.5
2017-Oct-10 21:28N 45°39' W 122°45'0 0.1
2017-Oct-10 20:58N 45°39' W 122°45'0 0.0
2017-Oct-10 20:28N 45°39' W 122°45'0 0.0
2017-Oct-10 19:55N 45°39' W 122°45'0 0.0
2017-Oct-10 19:28N 45°39' W 122°45'0 0.0
2017-Oct-10 18:58N 45°39' W 122°45'0 0.0
2017-Oct-10 18:19N 45°39' W 122°45'0 0.0
2017-Oct-10 17:58N 45°39' W 122°45'0 0.0
2017-Oct-10 17:28N 45°39' W 122°45'0 0.0
2017-Oct-10 16:58N 45°39' W 122°45'0 0.0
2017-Oct-10 16:28N 45°39' W 122°45'0 0.1
2017-Oct-10 15:55N 45°39' W 122°45'0 0.1
2017-Oct-10 15:25N 45°39' W 122°45'0 0.0
2017-Oct-10 14:52N 45°39' W 122°45'0 0.0
2017-Oct-10 13:55N 45°39' W 122°45'0 0.0
2017-Oct-10 13:30N 45°39' W 122°45'1 1.5
2017-Oct-10 13:00N 45°39' W 122°46'3 5.9
2017-Oct-10 12:30N 45°38' W 122°42'0 0.1
2017-Oct-10 12:00N 45°38' W 122°42'0 0.8
2017-Oct-10 11:30N 45°38' W 122°42'2 3.3
2017-Oct-10 11:00N 45°39' W 122°45'0 0.1
2017-Oct-10 10:30N 45°39' W 122°45'2 3.4
2017-Oct-10 10:00N 45°38' W 122°47'4 8.7
2017-Oct-10 09:30N 45°34' W 122°44'1 1.1
2017-Oct-10 08:49N 45°34' W 122°44'0 0.0
2017-Oct-10 08:28N 45°34' W 122°44'0 0.0
2017-Oct-10 07:52N 45°34' W 122°44'0 0.0
2017-Oct-10 07:28N 45°34' W 122°44'0 0.0
2017-Oct-10 06:55N 45°34' W 122°44'0 0.0
2017-Oct-10 06:28N 45°34' W 122°44'0 0.0
2017-Oct-10 05:55N 45°34' W 122°44'0 0.0
2017-Oct-10 05:28N 45°34' W 122°44'0 0.0
2017-Oct-10 04:58N 45°34' W 122°44'0 0.0
2017-Oct-10 04:28N 45°34' W 122°44'0 0.0
2017-Oct-10 03:43N 45°34' W 122°44'0 0.0
2017-Oct-10 03:28N 45°34' W 122°44'0 0.0
2017-Oct-10 02:52N 45°34' W 122°44'0 0.0
2017-Oct-10 02:28N 45°34' W 122°44'0 0.0
2017-Oct-10 01:58N 45°34' W 122°44'0 0.0
2017-Oct-10 01:10N 45°34' W 122°44'0 0.0
2017-Oct-10 00:58N 45°34' W 122°44'0 0.0
2017-Oct-10 00:16N 45°34' W 122°44'0 0.0
2017-Oct-09 23:58N 45°34' W 122°44'0 0.0
2017-Oct-09 23:28N 45°34' W 122°44'0 0.0
2017-Oct-09 22:58N 45°34' W 122°44'0 0.0
2017-Oct-09 22:28N 45°34' W 122°44'0 0.0
2017-Oct-09 21:58N 45°34' W 122°44'0 0.0
2017-Oct-09 21:19N 45°34' W 122°44'0 0.0
2017-Oct-09 20:55N 45°34' W 122°44'0 0.0
2017-Oct-09 20:28N 45°34' W 122°44'0 0.0
2017-Oct-09 19:58N 45°34' W 122°44'0 0.0
2017-Oct-09 19:30N 45°34' W 122°44'4 7.2
2017-Oct-09 19:00N 45°36' W 122°47'3 5.6
2017-Oct-09 18:30N 45°39' W 122°45'2 4.5
2017-Oct-09 18:00N 45°38' W 122°42'4 7.1
2017-Oct-09 17:30N 45°38' W 122°47'4 8.2
2017-Oct-09 17:01N 45°35' W 122°45'1 2.5
2017-Oct-09 16:30N 45°34' W 122°44'0 0.0
2017-Oct-09 16:00N 45°34' W 122°44'0 0.0
2017-Oct-09 15:30N 45°34' W 122°44'0 0.2
2017-Oct-09 15:00N 45°34' W 122°44'2 3.1
2017-Oct-09 14:30N 45°33' W 122°42'0 0.1
2017-Oct-09 14:01N 45°33' W 122°42'0 0.0
2017-Oct-09 13:30N 45°33' W 122°42'1 1.2
2017-Oct-09 13:01N 45°33' W 122°42'1 2.1
2017-Oct-09 12:30N 45°34' W 122°44'0 0.1
2017-Oct-09 12:00N 45°34' W 122°44'0 0.0
2017-Oct-09 11:30N 45°34' W 122°44'0 0.0
2017-Oct-09 10:59N 45°34' W 122°44'0 0.0
2017-Oct-09 10:13N 45°34' W 122°44'0 0.0
2017-Oct-09 10:00N 45°34' W 122°44'0 0.0
2017-Oct-09 09:30N 45°34' W 122°44'0 0.0
2017-Oct-09 09:00N 45°34' W 122°44'0 0.0
2017-Oct-09 08:30N 45°34' W 122°44'0 0.0
2017-Oct-09 08:00N 45°34' W 122°44'0 0.0
2017-Oct-09 07:30N 45°34' W 122°44'0 0.0
2017-Oct-09 07:00N 45°34' W 122°44'0 0.0
2017-Oct-09 06:30N 45°34' W 122°44'0 0.0
2017-Oct-09 06:00N 45°34' W 122°44'0 0.0
2017-Oct-09 05:30N 45°34' W 122°44'0 0.0
2017-Oct-09 05:00N 45°34' W 122°44'2 4.7
2017-Oct-09 04:30N 45°32' W 122°41'0 0.4
2017-Oct-09 04:00N 45°32' W 122°41'0 0.2
2017-Oct-09 03:31N 45°32' W 122°41'2 5.0
2017-Oct-09 03:01N 45°34' W 122°44'0 0.0
2017-Oct-09 02:30N 45°34' W 122°44'0 0.0
2017-Oct-09 02:00N 45°34' W 122°44'0 0.0
2017-Oct-09 01:30N 45°34' W 122°44'0 0.0
2017-Oct-09 01:00N 45°34' W 122°44'0 0.0
2017-Oct-09 00:30N 45°34' W 122°44'3 6.2
2017-Oct-09 00:00N 45°36' W 122°47'3 5.1
2017-Oct-08 23:30N 45°38' W 122°47'1 1.7
2017-Oct-08 23:00N 45°39' W 122°46'4 5.0
2017-Oct-08 22:16N 45°35' W 122°46'2 8.9
2017-Oct-08 22:00N 45°34' W 122°44'0 0.4
2017-Oct-08 21:30N 45°34' W 122°44'0 0.0
2017-Oct-08 21:00N 45°34' W 122°44'0 0.0
2017-Oct-08 20:30N 45°34' W 122°44'0 0.0
2017-Oct-08 20:00N 45°34' W 122°44'0 0.0
2017-Oct-08 19:30N 45°34' W 122°44'0 0.0
2017-Oct-08 19:00N 45°34' W 122°44'0 0.0
2017-Oct-08 18:30N 45°34' W 122°44'0 0.0
2017-Oct-08 18:01N 45°34' W 122°44'0 0.0
2017-Oct-08 17:30N 45°34' W 122°44'0 0.0
2017-Oct-08 17:00N 45°34' W 122°44'0 0.0
2017-Oct-08 16:30N 45°34' W 122°44'0 0.0
2017-Oct-08 16:00N 45°34' W 122°44'0 0.0
2017-Oct-08 15:31N 45°34' W 122°44'0 0.0
2017-Oct-08 15:00N 45°34' W 122°44'0 0.0
2017-Oct-08 14:30N 45°34' W 122°44'0 0.0
2017-Oct-08 14:00N 45°34' W 122°44'0 0.0
2017-Oct-08 13:30N 45°34' W 122°44'0 0.0
2017-Oct-08 13:00N 45°34' W 122°44'0 0.0
2017-Oct-08 12:30N 45°34' W 122°44'0 0.0
2017-Oct-08 12:01N 45°34' W 122°44'0 0.0
2017-Oct-08 11:30N 45°34' W 122°44'0 0.0
2017-Oct-08 11:00N 45°34' W 122°44'0 0.0
2017-Oct-08 10:30N 45°34' W 122°44'0 0.0
2017-Oct-08 10:01N 45°34' W 122°44'0 0.0
2017-Oct-08 09:30N 45°34' W 122°44'0 0.0
2017-Oct-08 09:00N 45°34' W 122°44'0 0.0
2017-Oct-08 08:30N 45°34' W 122°44'0 0.0
2017-Oct-08 08:01N 45°34' W 122°44'0 0.0
2017-Oct-08 07:31N 45°34' W 122°44'0 0.0
2017-Oct-08 07:00N 45°34' W 122°44'0 0.0
2017-Oct-08 06:30N 45°34' W 122°44'0 0.0
2017-Oct-08 06:00N 45°34' W 122°44'0 0.0
2017-Oct-08 05:30N 45°34' W 122°44'0 0.0
2017-Oct-08 05:00N 45°34' W 122°44'0 0.0
2017-Oct-08 04:30N 45°34' W 122°44'0 0.0
2017-Oct-08 04:00N 45°34' W 122°44'0 0.0
2017-Oct-08 03:30N 45°34' W 122°44'0 0.0
2017-Oct-08 03:00N 45°34' W 122°44'0 0.0
2017-Oct-08 02:30N 45°34' W 122°44'0 0.0
2017-Oct-08 02:00N 45°34' W 122°44'0 0.0
2017-Oct-08 01:30N 45°34' W 122°44'0 0.0
2017-Oct-08 01:00N 45°34' W 122°44'0 0.0
2017-Oct-08 00:30N 45°34' W 122°44'0 0.0
2017-Oct-08 00:00N 45°34' W 122°44'  

Dump ship's entire track history